Terminal Aerodrome Forecast
Issued by NWS

Home | Current Version | Previous Version | Text Only | Print | Product List | Glossary On
Versions: 1 2 3 4 5 6 7 8 9 10 11 12 13 14 15 16 17 18
947
FTUS45 KTFX 130530
TAFCTB
TAF
KCTB 130530Z 1306/1406 23009KT P6SM SCT180
     FM131200 25020G32KT P6SM SCT060 BKN100
     FM131600 27025G40KT P6SM SCT070 BKN150
     FM140000 26024G34KT P6SM SCT200=

USA.gov is the U.S. government's official web portal to all federal, state and local government web resources and services.